sensor_id;sensor_type;location;lat;lon;timestamp;P1;durP1;ratioP1;P2;durP2;ratioP2
84379;SDS011;74571;52.514;13.468;2024-01-30T00:00:30;10.38;;;5.05;;
84379;SDS011;74571;52.514;13.468;2024-01-30T00:02:55;8.33;;;4.73;;
84379;SDS011;74571;52.514;13.468;2024-01-30T00:05:20;8.67;;;4.80;;
84379;SDS011;74571;52.514;13.468;2024-01-30T00:07:45;10.27;;;5.03;;
84379;SDS011;74571;52.514;13.468;2024-01-30T00:10:11;8.60;;;4.87;;
84379;SDS011;74571;52.514;13.468;2024-01-30T00:12:36;7.63;;;4.33;;
84379;SDS011;74571;52.514;13.468;2024-01-30T00:15:01;8.38;;;4.65;;
84379;SDS011;74571;52.514;13.468;2024-01-30T00:17:29;10.75;;;5.47;;
84379;SDS011;74571;52.514;13.468;2024-01-30T00:19:54;10.73;;;4.83;;
84379;SDS011;74571;52.514;13.468;2024-01-30T00:22:19;9.57;;;4.67;;
84379;SDS011;74571;52.514;13.468;2024-01-30T00:24:45;12.30;;;5.20;;
84379;SDS011;74571;52.514;13.468;2024-01-30T00:27:10;9.40;;;5.00;;
84379;SDS011;74571;52.514;13.468;2024-01-30T00:29:35;11.35;;;5.93;;
84379;SDS011;74571;52.514;13.468;2024-01-30T00:32:01;10.50;;;4.90;;
84379;SDS011;74571;52.514;13.468;2024-01-30T00:34:26;9.00;;;4.60;;
84379;SDS011;74571;52.514;13.468;2024-01-30T00:36:51;9.13;;;4.87;;
84379;SDS011;74571;52.514;13.468;2024-01-30T00:39:16;10.73;;;5.10;;
84379;SDS011;74571;52.514;13.468;2024-01-30T00:41:44;10.07;;;5.57;;
84379;SDS011;74571;52.514;13.468;2024-01-30T00:44:09;8.03;;;4.30;;
84379;SDS011;74571;52.514;13.468;2024-01-30T00:46:34;8.50;;;4.70;;
84379;SDS011;74571;52.514;13.468;2024-01-30T00:49:00;9.77;;;4.70;;
84379;SDS011;74571;52.514;13.468;2024-01-30T00:51:25;7.57;;;4.33;;
84379;SDS011;74571;52.514;13.468;2024-01-30T00:53:50;9.83;;;5.07;;
84379;SDS011;74571;52.514;13.468;2024-01-30T00:56:15;9.77;;;5.00;;
84379;SDS011;74571;52.514;13.468;2024-01-30T00:58:43;9.00;;;4.97;;
84379;SDS011;74571;52.514;13.468;2024-01-30T01:01:08;11.33;;;4.93;;
84379;SDS011;74571;52.514;13.468;2024-01-30T01:03:33;8.47;;;4.83;;
84379;SDS011;74571;52.514;13.468;2024-01-30T01:05:59;6.53;;;4.40;;
84379;SDS011;74571;52.514;13.468;2024-01-30T01:08:24;7.80;;;5.00;;
84379;SDS011;74571;52.514;13.468;2024-01-30T01:10:50;8.43;;;4.53;;
84379;SDS011;74571;52.514;13.468;2024-01-30T01:13:15;7.77;;;4.33;;
84379;SDS011;74571;52.514;13.468;2024-01-30T01:15:40;8.33;;;5.00;;
84379;SDS011;74571;52.514;13.468;2024-01-30T01:18:05;6.67;;;4.00;;
84379;SDS011;74571;52.514;13.468;2024-01-30T01:20:31;9.70;;;4.87;;
84379;SDS011;74571;52.514;13.468;2024-01-30T01:22:59;8.60;;;4.35;;
84379;SDS011;74571;52.514;13.468;2024-01-30T01:25:24;10.00;;;4.87;;
84379;SDS011;74571;52.514;13.468;2024-01-30T01:27:49;8.30;;;4.13;;
84379;SDS011;74571;52.514;13.468;2024-01-30T01:30:17;11.68;;;5.15;;
84379;SDS011;74571;52.514;13.468;2024-01-30T01:32:47;8.80;;;5.32;;
84379;SDS011;74571;52.514;13.468;2024-01-30T01:35:20;8.32;;;4.63;;
84379;SDS011;74571;52.514;13.468;2024-01-30T01:37:46;10.35;;;5.05;;
84379;SDS011;74571;52.514;13.468;2024-01-30T01:40:11;9.47;;;4.50;;
84379;SDS011;74571;52.514;13.468;2024-01-30T01:42:36;8.37;;;4.60;;
84379;SDS011;74571;52.514;13.468;2024-01-30T01:45:02;9.05;;;4.65;;
84379;SDS011;74571;52.514;13.468;2024-01-30T01:47:30;8.00;;;4.47;;
84379;SDS011;74571;52.514;13.468;2024-01-30T01:49:55;7.43;;;4.30;;
84379;SDS011;74571;52.514;13.468;2024-01-30T01:52:21;9.73;;;5.10;;
84379;SDS011;74571;52.514;13.468;2024-01-30T01:54:46;8.57;;;5.00;;
84379;SDS011;74571;52.514;13.468;2024-01-30T01:57:11;8.33;;;4.90;;
84379;SDS011;74571;52.514;13.468;2024-01-30T01:59:37;9.75;;;4.47;;
84379;SDS011;74571;52.514;13.468;2024-01-30T02:02:02;9.07;;;4.57;;
84379;SDS011;74571;52.514;13.468;2024-01-30T02:04:29;9.32;;;4.70;;
84379;SDS011;74571;52.514;13.468;2024-01-30T02:06:54;9.07;;;4.90;;
84379;SDS011;74571;52.514;13.468;2024-01-30T02:09:20;9.00;;;4.45;;
84379;SDS011;74571;52.514;13.468;2024-01-30T02:11:45;10.10;;;4.43;;
84379;SDS011;74571;52.514;13.468;2024-01-30T02:14:10;10.10;;;4.43;;
84379;SDS011;74571;52.514;13.468;2024-01-30T02:16:36;11.23;;;4.93;;
84379;SDS011;74571;52.514;13.468;2024-01-30T02:19:01;6.45;;;4.15;;
84379;SDS011;74571;52.514;13.468;2024-01-30T02:21:26;9.93;;;4.87;;
84379;SDS011;74571;52.514;13.468;2024-01-30T02:23:52;10.38;;;4.90;;
84379;SDS011;74571;52.514;13.468;2024-01-30T02:26:20;8.25;;;4.55;;
84379;SDS011;74571;52.514;13.468;2024-01-30T02:28:45;9.47;;;4.93;;
84379;SDS011;74571;52.514;13.468;2024-01-30T02:31:10;8.93;;;4.50;;
84379;SDS011;74571;52.514;13.468;2024-01-30T02:33:35;8.00;;;4.70;;
84379;SDS011;74571;52.514;13.468;2024-01-30T02:36:01;8.10;;;4.50;;
84379;SDS011;74571;52.514;13.468;2024-01-30T02:38:26;10.60;;;4.73;;
84379;SDS011;74571;52.514;13.468;2024-01-30T02:40:52;7.18;;;4.60;;
84379;SDS011;74571;52.514;13.468;2024-01-30T02:43:17;8.23;;;4.50;;
84379;SDS011;74571;52.514;13.468;2024-01-30T02:45:42;6.37;;;4.33;;
84379;SDS011;74571;52.514;13.468;2024-01-30T02:48:08;8.00;;;4.63;;
84379;SDS011;74571;52.514;13.468;2024-01-30T02:50:33;9.03;;;4.57;;
84379;SDS011;74571;52.514;13.468;2024-01-30T02:52:58;8.63;;;4.25;;
84379;SDS011;74571;52.514;13.468;2024-01-30T02:55:24;10.27;;;4.27;;
84379;SDS011;74571;52.514;13.468;2024-01-30T02:57:49;8.13;;;4.57;;
84379;SDS011;74571;52.514;13.468;2024-01-30T03:00:14;5.80;;;3.90;;
84379;SDS011;74571;52.514;13.468;2024-01-30T03:02:40;6.68;;;4.10;;
84379;SDS011;74571;52.514;13.468;2024-01-30T03:05:05;8.33;;;4.60;;
84379;SDS011;74571;52.514;13.468;2024-01-30T03:07:30;8.00;;;4.25;;
84379;SDS011;74571;52.514;13.468;2024-01-30T03:09:56;8.73;;;4.90;;
84379;SDS011;74571;52.514;13.468;2024-01-30T03:12:21;8.30;;;4.50;;
84379;SDS011;74571;52.514;13.468;2024-01-30T03:14:47;7.43;;;4.47;;
84379;SDS011;74571;52.514;13.468;2024-01-30T03:17:12;9.30;;;4.53;;
84379;SDS011;74571;52.514;13.468;2024-01-30T03:19:37;8.50;;;4.60;;
84379;SDS011;74571;52.514;13.468;2024-01-30T03:22:03;6.23;;;3.90;;
84379;SDS011;74571;52.514;13.468;2024-01-30T03:24:28;8.30;;;4.37;;
84379;SDS011;74571;52.514;13.468;2024-01-30T03:26:53;8.63;;;4.63;;
84379;SDS011;74571;52.514;13.468;2024-01-30T03:29:18;8.67;;;4.63;;
84379;SDS011;74571;52.514;13.468;2024-01-30T03:31:44;7.13;;;4.33;;
84379;SDS011;74571;52.514;13.468;2024-01-30T03:34:09;8.67;;;4.80;;
84379;SDS011;74571;52.514;13.468;2024-01-30T03:36:34;9.20;;;4.97;;
84379;SDS011;74571;52.514;13.468;2024-01-30T03:39:00;7.30;;;4.17;;
84379;SDS011;74571;52.514;13.468;2024-01-30T03:41:26;10.35;;;4.32;;
84379;SDS011;74571;52.514;13.468;2024-01-30T03:43:51;8.63;;;4.60;;
84379;SDS011;74571;52.514;13.468;2024-01-30T03:46:16;7.83;;;4.40;;
84379;SDS011;74571;52.514;13.468;2024-01-30T03:48:41;7.30;;;4.43;;
84379;SDS011;74571;52.514;13.468;2024-01-30T03:51:07;8.67;;;4.33;;
84379;SDS011;74571;52.514;13.468;2024-01-30T03:53:32;7.77;;;4.30;;
84379;SDS011;74571;52.514;13.468;2024-01-30T03:55:57;9.57;;;4.93;;
84379;SDS011;74571;52.514;13.468;2024-01-30T03:58:23;8.50;;;4.63;;
84379;SDS011;74571;52.514;13.468;2024-01-30T04:00:48;10.10;;;4.67;;
84379;SDS011;74571;52.514;13.468;2024-01-30T04:03:16;7.30;;;4.27;;
84379;SDS011;74571;52.514;13.468;2024-01-30T04:05:41;8.65;;;4.57;;
84379;SDS011;74571;52.514;13.468;2024-01-30T04:08:07;6.93;;;4.53;;
84379;SDS011;74571;52.514;13.468;2024-01-30T04:10:32;8.80;;;4.70;;
84379;SDS011;74571;52.514;13.468;2024-01-30T04:12:58;8.73;;;4.70;;
84379;SDS011;74571;52.514;13.468;2024-01-30T04:15:23;8.20;;;4.70;;
84379;SDS011;74571;52.514;13.468;2024-01-30T04:17:48;11.33;;;4.63;;
84379;SDS011;74571;52.514;13.468;2024-01-30T04:20:16;8.70;;;4.70;;
84379;SDS011;74571;52.514;13.468;2024-01-30T04:22:45;10.30;;;4.63;;
84379;SDS011;74571;52.514;13.468;2024-01-30T04:25:11;7.35;;;4.90;;
84379;SDS011;74571;52.514;13.468;2024-01-30T04:27:39;9.35;;;4.72;;
84379;SDS011;74571;52.514;13.468;2024-01-30T04:30:05;8.90;;;5.07;;
84379;SDS011;74571;52.514;13.468;2024-01-30T04:32:31;10.82;;;4.82;;
84379;SDS011;74571;52.514;13.468;2024-01-30T04:34:57;9.90;;;4.65;;
84379;SDS011;74571;52.514;13.468;2024-01-30T04:37:22;11.87;;;4.90;;
84379;SDS011;74571;52.514;13.468;2024-01-30T04:39:48;8.00;;;4.70;;
84379;SDS011;74571;52.514;13.468;2024-01-30T04:42:13;9.23;;;4.83;;
84379;SDS011;74571;52.514;13.468;2024-01-30T04:44:38;9.63;;;4.53;;
84379;SDS011;74571;52.514;13.468;2024-01-30T04:47:04;9.03;;;4.80;;
84379;SDS011;74571;52.514;13.468;2024-01-30T04:49:30;9.85;;;4.70;;
84379;SDS011;74571;52.514;13.468;2024-01-30T04:51:56;9.88;;;5.03;;
84379;SDS011;74571;52.514;13.468;2024-01-30T04:54:21;7.77;;;4.53;;
84379;SDS011;74571;52.514;13.468;2024-01-30T04:56:47;9.27;;;4.50;;
84379;SDS011;74571;52.514;13.468;2024-01-30T04:59:12;8.87;;;5.07;;
84379;SDS011;74571;52.514;13.468;2024-01-30T05:01:37;8.57;;;5.07;;
84379;SDS011;74571;52.514;13.468;2024-01-30T05:04:02;8.20;;;4.33;;
84379;SDS011;74571;52.514;13.468;2024-01-30T05:06:28;7.82;;;4.90;;
84379;SDS011;74571;52.514;13.468;2024-01-30T05:08:54;8.18;;;4.85;;
84379;SDS011;74571;52.514;13.468;2024-01-30T05:11:20;7.63;;;5.15;;
84379;SDS011;74571;52.514;13.468;2024-01-30T05:13:45;7.97;;;4.83;;
84379;SDS011;74571;52.514;13.468;2024-01-30T05:16:10;12.00;;;4.90;;
84379;SDS011;74571;52.514;13.468;2024-01-30T05:18:36;7.20;;;5.00;;
84379;SDS011;74571;52.514;13.468;2024-01-30T05:21:01;10.03;;;5.07;;
84379;SDS011;74571;52.514;13.468;2024-01-30T05:23:27;8.88;;;5.10;;
84379;SDS011;74571;52.514;13.468;2024-01-30T05:25:52;7.13;;;4.77;;
84379;SDS011;74571;52.514;13.468;2024-01-30T05:28:18;13.73;;;5.70;;
84379;SDS011;74571;52.514;13.468;2024-01-30T05:30:43;10.67;;;5.30;;
84379;SDS011;74571;52.514;13.468;2024-01-30T05:33:08;11.37;;;5.03;;
84379;SDS011;74571;52.514;13.468;2024-01-30T05:35:34;10.82;;;5.55;;
84379;SDS011;74571;52.514;13.468;2024-01-30T05:37:59;10.03;;;5.50;;
84379;SDS011;74571;52.514;13.468;2024-01-30T05:40:25;10.27;;;5.30;;
84379;SDS011;74571;52.514;13.468;2024-01-30T05:42:50;9.37;;;5.00;;
84379;SDS011;74571;52.514;13.468;2024-01-30T05:45:18;8.90;;;5.17;;
84379;SDS011;74571;52.514;13.468;2024-01-30T05:47:43;11.63;;;5.32;;
84379;SDS011;74571;52.514;13.468;2024-01-30T05:50:09;8.77;;;5.17;;
84379;SDS011;74571;52.514;13.468;2024-01-30T05:52:34;13.50;;;5.72;;
84379;SDS011;74571;52.514;13.468;2024-01-30T05:54:59;12.73;;;5.33;;
84379;SDS011;74571;52.514;13.468;2024-01-30T05:57:24;9.80;;;5.00;;
84379;SDS011;74571;52.514;13.468;2024-01-30T05:59:50;9.73;;;5.28;;
84379;SDS011;74571;52.514;13.468;2024-01-30T06:02:16;10.82;;;5.03;;
84379;SDS011;74571;52.514;13.468;2024-01-30T06:04:42;9.13;;;4.87;;
84379;SDS011;74571;52.514;13.468;2024-01-30T06:07:07;12.33;;;5.63;;
84379;SDS011;74571;52.514;13.468;2024-01-30T06:09:32;7.45;;;4.30;;
84379;SDS011;74571;52.514;13.468;2024-01-30T06:11:58;9.17;;;5.50;;
84379;SDS011;74571;52.514;13.468;2024-01-30T06:14:23;8.90;;;4.63;;
84379;SDS011;74571;52.514;13.468;2024-01-30T06:16:49;9.18;;;5.18;;
84379;SDS011;74571;52.514;13.468;2024-01-30T06:19:14;9.30;;;4.70;;
84379;SDS011;74571;52.514;13.468;2024-01-30T06:21:39;8.97;;;4.93;;
84379;SDS011;74571;52.514;13.468;2024-01-30T06:24:05;8.27;;;4.90;;
84379;SDS011;74571;52.514;13.468;2024-01-30T06:26:30;8.52;;;5.20;;
84379;SDS011;74571;52.514;13.468;2024-01-30T06:28:55;7.57;;;4.70;;
84379;SDS011;74571;52.514;13.468;2024-01-30T06:31:20;10.50;;;5.27;;
84379;SDS011;74571;52.514;13.468;2024-01-30T06:33:49;8.13;;;5.03;;
84379;SDS011;74571;52.514;13.468;2024-01-30T06:36:15;9.82;;;4.50;;
84379;SDS011;74571;52.514;13.468;2024-01-30T06:38:40;11.73;;;6.03;;
84379;SDS011;74571;52.514;13.468;2024-01-30T06:41:06;11.65;;;5.50;;
84379;SDS011;74571;52.514;13.468;2024-01-30T06:43:31;12.23;;;5.93;;
84379;SDS011;74571;52.514;13.468;2024-01-30T06:45:56;11.33;;;5.60;;
84379;SDS011;74571;52.514;13.468;2024-01-30T06:48:22;9.98;;;5.68;;
84379;SDS011;74571;52.514;13.468;2024-01-30T06:50:47;10.07;;;5.57;;
84379;SDS011;74571;52.514;13.468;2024-01-30T06:53:14;10.68;;;5.53;;
84379;SDS011;74571;52.514;13.468;2024-01-30T06:55:39;9.17;;;5.00;;
84379;SDS011;74571;52.514;13.468;2024-01-30T06:58:04;13.30;;;5.73;;
84379;SDS011;74571;52.514;13.468;2024-01-30T07:00:29;10.97;;;5.23;;
84379;SDS011;74571;52.514;13.468;2024-01-30T07:02:55;10.05;;;5.70;;
84379;SDS011;74571;52.514;13.468;2024-01-30T07:05:21;11.52;;;5.88;;
84379;SDS011;74571;52.514;13.468;2024-01-30T07:07:47;13.70;;;6.18;;
84379;SDS011;74571;52.514;13.468;2024-01-30T07:10:12;10.53;;;6.20;;
84379;SDS011;74571;52.514;13.468;2024-01-30T07:12:37;13.25;;;6.18;;
84379;SDS011;74571;52.514;13.468;2024-01-30T07:15:03;11.00;;;5.33;;
84379;SDS011;74571;52.514;13.468;2024-01-30T07:17:28;14.73;;;5.90;;
84379;SDS011;74571;52.514;13.468;2024-01-30T07:19:54;9.83;;;5.23;;
84379;SDS011;74571;52.514;13.468;2024-01-30T07:22:19;12.93;;;6.07;;
84379;SDS011;74571;52.514;13.468;2024-01-30T07:24:44;11.60;;;6.50;;
84379;SDS011;74571;52.514;13.468;2024-01-30T07:27:12;10.30;;;5.88;;
84379;SDS011;74571;52.514;13.468;2024-01-30T07:29:38;13.10;;;5.80;;
84379;SDS011;74571;52.514;13.468;2024-01-30T07:32:03;11.07;;;5.87;;
84379;SDS011;74571;52.514;13.468;2024-01-30T07:34:29;15.93;;;6.20;;
84379;SDS011;74571;52.514;13.468;2024-01-30T07:36:54;10.20;;;5.60;;
84379;SDS011;74571;52.514;13.468;2024-01-30T07:39:19;10.13;;;5.70;;
84379;SDS011;74571;52.514;13.468;2024-01-30T07:41:44;15.57;;;6.60;;
84379;SDS011;74571;52.514;13.468;2024-01-30T07:44:10;13.57;;;5.73;;
84379;SDS011;74571;52.514;13.468;2024-01-30T07:46:35;10.53;;;6.13;;
84379;SDS011;74571;52.514;13.468;2024-01-30T07:49:00;12.03;;;7.10;;
84379;SDS011;74571;52.514;13.468;2024-01-30T07:51:26;14.30;;;6.97;;
84379;SDS011;74571;52.514;13.468;2024-01-30T07:53:53;12.73;;;6.38;;
84379;SDS011;74571;52.514;13.468;2024-01-30T07:56:18;11.77;;;6.70;;
84379;SDS011;74571;52.514;13.468;2024-01-30T07:58:44;17.83;;;6.60;;
84379;SDS011;74571;52.514;13.468;2024-01-30T08:01:09;14.23;;;7.00;;
84379;SDS011;74571;52.514;13.468;2024-01-30T08:03:35;12.57;;;7.23;;
84379;SDS011;74571;52.514;13.468;2024-01-30T08:06:01;11.95;;;6.97;;
84379;SDS011;74571;52.514;13.468;2024-01-30T08:08:27;13.40;;;6.70;;
84379;SDS011;74571;52.514;13.468;2024-01-30T08:10:53;13.98;;;5.95;;
84379;SDS011;74571;52.514;13.468;2024-01-30T08:13:18;12.03;;;6.30;;
84379;SDS011;74571;52.514;13.468;2024-01-30T08:15:43;14.77;;;6.37;;
84379;SDS011;74571;52.514;13.468;2024-01-30T08:18:09;11.97;;;5.73;;
84379;SDS011;74571;52.514;13.468;2024-01-30T08:20:34;11.17;;;5.83;;
84379;SDS011;74571;52.514;13.468;2024-01-30T08:22:59;10.55;;;6.35;;
84379;SDS011;74571;52.514;13.468;2024-01-30T08:25:25;14.82;;;7.45;;
84379;SDS011;74571;52.514;13.468;2024-01-30T08:27:51;12.77;;;6.70;;
84379;SDS011;74571;52.514;13.468;2024-01-30T08:30:16;12.73;;;7.07;;
84379;SDS011;74571;52.514;13.468;2024-01-30T08:32:41;13.87;;;7.07;;
84379;SDS011;74571;52.514;13.468;2024-01-30T08:35:07;14.80;;;6.53;;
84379;SDS011;74571;52.514;13.468;2024-01-30T08:37:33;15.55;;;7.18;;
84379;SDS011;74571;52.514;13.468;2024-01-30T08:39:58;10.30;;;5.90;;
84379;SDS011;74571;52.514;13.468;2024-01-30T08:42:24;13.00;;;6.75;;
84379;SDS011;74571;52.514;13.468;2024-01-30T08:44:50;9.82;;;5.57;;
84379;SDS011;74571;52.514;13.468;2024-01-30T08:47:16;12.70;;;6.55;;
84379;SDS011;74571;52.514;13.468;2024-01-30T08:49:42;15.32;;;7.07;;
84379;SDS011;74571;52.514;13.468;2024-01-30T08:52:09;14.68;;;6.82;;
84379;SDS011;74571;52.514;13.468;2024-01-30T08:54:34;16.38;;;6.70;;
84379;SDS011;74571;52.514;13.468;2024-01-30T08:57:00;13.48;;;7.03;;
84379;SDS011;74571;52.514;13.468;2024-01-30T08:59:25;16.13;;;6.87;;
84379;SDS011;74571;52.514;13.468;2024-01-30T09:01:50;17.60;;;6.80;;
84379;SDS011;74571;52.514;13.468;2024-01-30T09:04:18;15.02;;;6.78;;
84379;SDS011;74571;52.514;13.468;2024-01-30T09:06:43;12.13;;;6.10;;
84379;SDS011;74571;52.514;13.468;2024-01-30T09:09:09;13.20;;;6.17;;
84379;SDS011;74571;52.514;13.468;2024-01-30T09:11:35;10.03;;;6.13;;
84379;SDS011;74571;52.514;13.468;2024-01-30T09:14:00;13.57;;;6.28;;
84379;SDS011;74571;52.514;13.468;2024-01-30T09:16:25;12.13;;;5.90;;
84379;SDS011;74571;52.514;13.468;2024-01-30T09:18:51;13.30;;;5.73;;
84379;SDS011;74571;52.514;13.468;2024-01-30T09:21:16;11.67;;;5.63;;
84379;SDS011;74571;52.514;13.468;2024-01-30T09:23:41;11.50;;;6.27;;
84379;SDS011;74571;52.514;13.468;2024-01-30T09:26:06;13.27;;;6.47;;
84379;SDS011;74571;52.514;13.468;2024-01-30T09:28:31;10.97;;;5.73;;
84379;SDS011;74571;52.514;13.468;2024-01-30T09:30:57;10.53;;;5.60;;
84379;SDS011;74571;52.514;13.468;2024-01-30T09:33:22;15.15;;;5.95;;
84379;SDS011;74571;52.514;13.468;2024-01-30T09:35:47;14.20;;;6.13;;
84379;SDS011;74571;52.514;13.468;2024-01-30T09:38:13;11.30;;;5.63;;
84379;SDS011;74571;52.514;13.468;2024-01-30T09:40:38;13.53;;;5.50;;
84379;SDS011;74571;52.514;13.468;2024-01-30T09:43:03;12.07;;;6.07;;
84379;SDS011;74571;52.514;13.468;2024-01-30T09:45:28;8.53;;;5.10;;
84379;SDS011;74571;52.514;13.468;2024-01-30T09:47:54;11.20;;;5.30;;
84379;SDS011;74571;52.514;13.468;2024-01-30T09:50:20;17.15;;;5.78;;
84379;SDS011;74571;52.514;13.468;2024-01-30T09:52:46;13.23;;;5.77;;
84379;SDS011;74571;52.514;13.468;2024-01-30T09:55:12;10.82;;;6.00;;
84379;SDS011;74571;52.514;13.468;2024-01-30T09:57:38;14.13;;;5.80;;
84379;SDS011;74571;52.514;13.468;2024-01-30T10:00:06;11.45;;;5.50;;
84379;SDS011;74571;52.514;13.468;2024-01-30T10:02:35;16.60;;;6.53;;
84379;SDS011;74571;52.514;13.468;2024-01-30T10:05:01;11.63;;;6.00;;
84379;SDS011;74571;52.514;13.468;2024-01-30T10:07:26;11.68;;;5.40;;
84379;SDS011;74571;52.514;13.468;2024-01-30T10:09:52;13.77;;;5.80;;
84379;SDS011;74571;52.514;13.468;2024-01-30T10:12:18;17.20;;;6.32;;
84379;SDS011;74571;52.514;13.468;2024-01-30T10:14:44;13.73;;;6.20;;
84379;SDS011;74571;52.514;13.468;2024-01-30T10:17:09;8.40;;;4.78;;
84379;SDS011;74571;52.514;13.468;2024-01-30T10:19:36;10.60;;;5.47;;
84379;SDS011;74571;52.514;13.468;2024-01-30T10:22:03;8.93;;;5.05;;
84379;SDS011;74571;52.514;13.468;2024-01-30T10:24:29;9.57;;;5.22;;
84379;SDS011;74571;52.514;13.468;2024-01-30T10:26:57;9.32;;;5.47;;
84379;SDS011;74571;52.514;13.468;2024-01-30T10:29:22;8.00;;;5.40;;
84379;SDS011;74571;52.514;13.468;2024-01-30T10:34:42;10.05;;;5.25;;
84379;SDS011;74571;52.514;13.468;2024-01-30T10:37:09;12.43;;;5.30;;
84379;SDS011;74571;52.514;13.468;2024-01-30T10:39:38;9.65;;;4.93;;
84379;SDS011;74571;52.514;13.468;2024-01-30T10:42:04;8.55;;;4.57;;
84379;SDS011;74571;52.514;13.468;2024-01-30T10:44:34;11.50;;;4.90;;
84379;SDS011;74571;52.514;13.468;2024-01-30T10:47:03;6.63;;;4.32;;
84379;SDS011;74571;52.514;13.468;2024-01-30T10:49:33;7.65;;;4.57;;
84379;SDS011;74571;52.514;13.468;2024-01-30T10:51:58;10.15;;;4.90;;
84379;SDS011;74571;52.514;13.468;2024-01-30T10:54:24;7.25;;;4.18;;
84379;SDS011;74571;52.514;13.468;2024-01-30T10:56:51;13.93;;;5.90;;
84379;SDS011;74571;52.514;13.468;2024-01-30T10:59:17;7.70;;;4.55;;
84379;SDS011;74571;52.514;13.468;2024-01-30T11:01:43;9.52;;;4.45;;
84379;SDS011;74571;52.514;13.468;2024-01-30T11:04:09;8.15;;;4.25;;
84379;SDS011;74571;52.514;13.468;2024-01-30T11:06:40;9.10;;;4.40;;
84379;SDS011;74571;52.514;13.468;2024-01-30T11:09:06;9.13;;;4.63;;
84379;SDS011;74571;52.514;13.468;2024-01-30T11:14:15;8.15;;;4.63;;
84379;SDS011;74571;52.514;13.468;2024-01-30T11:16:48;7.03;;;4.45;;
84379;SDS011;74571;52.514;13.468;2024-01-30T11:19:14;7.28;;;4.53;;
84379;SDS011;74571;52.514;13.468;2024-01-30T11:21:42;7.57;;;3.90;;
84379;SDS011;74571;52.514;13.468;2024-01-30T11:24:07;9.98;;;4.90;;
84379;SDS011;74571;52.514;13.468;2024-01-30T11:26:33;8.85;;;4.85;;
84379;SDS011;74571;52.514;13.468;2024-01-30T11:28:59;6.90;;;4.25;;
84379;SDS011;74571;52.514;13.468;2024-01-30T11:31:28;10.25;;;5.63;;
84379;SDS011;74571;52.514;13.468;2024-01-30T11:33:53;9.57;;;4.50;;
84379;SDS011;74571;52.514;13.468;2024-01-30T11:36:20;7.70;;;3.92;;
84379;SDS011;74571;52.514;13.468;2024-01-30T11:38:50;8.80;;;4.68;;
84379;SDS011;74571;52.514;13.468;2024-01-30T11:41:15;10.13;;;5.97;;
84379;SDS011;74571;52.514;13.468;2024-01-30T11:43:41;8.68;;;4.75;;
84379;SDS011;74571;52.514;13.468;2024-01-30T11:46:06;8.70;;;5.00;;
84379;SDS011;74571;52.514;13.468;2024-01-30T11:48:32;12.30;;;5.38;;
84379;SDS011;74571;52.514;13.468;2024-01-30T11:50:57;10.23;;;4.80;;
84379;SDS011;74571;52.514;13.468;2024-01-30T11:53:23;6.82;;;4.47;;
84379;SDS011;74571;52.514;13.468;2024-01-30T11:55:51;9.38;;;4.72;;
84379;SDS011;74571;52.514;13.468;2024-01-30T11:58:17;9.45;;;5.45;;
84379;SDS011;74571;52.514;13.468;2024-01-30T12:00:42;7.90;;;4.70;;
84379;SDS011;74571;52.514;13.468;2024-01-30T12:03:09;8.77;;;4.78;;
84379;SDS011;74571;52.514;13.468;2024-01-30T12:05:36;8.90;;;5.35;;
84379;SDS011;74571;52.514;13.468;2024-01-30T12:08:03;8.20;;;5.13;;
84379;SDS011;74571;52.514;13.468;2024-01-30T12:10:29;9.05;;;4.90;;
84379;SDS011;74571;52.514;13.468;2024-01-30T12:12:54;7.23;;;4.47;;
84379;SDS011;74571;52.514;13.468;2024-01-30T12:15:21;9.82;;;4.97;;
84379;SDS011;74571;52.514;13.468;2024-01-30T12:17:47;8.55;;;4.95;;
84379;SDS011;74571;52.514;13.468;2024-01-30T12:20:13;8.90;;;5.10;;
84379;SDS011;74571;52.514;13.468;2024-01-30T12:22:41;8.65;;;4.90;;
84379;SDS011;74571;52.514;13.468;2024-01-30T12:25:08;8.00;;;4.70;;
84379;SDS011;74571;52.514;13.468;2024-01-30T12:27:34;10.38;;;5.30;;
84379;SDS011;74571;52.514;13.468;2024-01-30T12:29:59;11.38;;;5.20;;
84379;SDS011;74571;52.514;13.468;2024-01-30T12:32:25;8.93;;;4.67;;
84379;SDS011;74571;52.514;13.468;2024-01-30T12:34:50;8.38;;;5.00;;
84379;SDS011;74571;52.514;13.468;2024-01-30T12:37:15;10.77;;;4.97;;
84379;SDS011;74571;52.514;13.468;2024-01-30T12:39:47;9.70;;;5.22;;
84379;SDS011;74571;52.514;13.468;2024-01-30T12:42:13;8.57;;;4.90;;
84379;SDS011;74571;52.514;13.468;2024-01-30T12:44:39;8.05;;;4.47;;
84379;SDS011;74571;52.514;13.468;2024-01-30T12:47:04;9.68;;;5.00;;
84379;SDS011;74571;52.514;13.468;2024-01-30T12:49:29;8.95;;;4.93;;
84379;SDS011;74571;52.514;13.468;2024-01-30T12:51:55;8.60;;;4.60;;
84379;SDS011;74571;52.514;13.468;2024-01-30T12:54:22;9.73;;;5.60;;
84379;SDS011;74571;52.514;13.468;2024-01-30T12:56:47;7.10;;;4.70;;
84379;SDS011;74571;52.514;13.468;2024-01-30T12:59:13;12.17;;;4.57;;
84379;SDS011;74571;52.514;13.468;2024-01-30T13:01:38;11.73;;;4.67;;
84379;SDS011;74571;52.514;13.468;2024-01-30T13:04:03;14.27;;;5.53;;
84379;SDS011;74571;52.514;13.468;2024-01-30T13:06:29;7.93;;;4.93;;
84379;SDS011;74571;52.514;13.468;2024-01-30T13:08:54;11.43;;;5.57;;
84379;SDS011;74571;52.514;13.468;2024-01-30T13:11:19;17.77;;;5.63;;
84379;SDS011;74571;52.514;13.468;2024-01-30T13:13:44;10.67;;;6.13;;
84379;SDS011;74571;52.514;13.468;2024-01-30T13:16:10;9.87;;;5.63;;
84379;SDS011;74571;52.514;13.468;2024-01-30T13:18:35;10.20;;;5.17;;
84379;SDS011;74571;52.514;13.468;2024-01-30T13:21:00;7.30;;;5.00;;
84379;SDS011;74571;52.514;13.468;2024-01-30T13:23:28;8.27;;;4.75;;
84379;SDS011;74571;52.514;13.468;2024-01-30T13:25:53;8.60;;;4.80;;
84379;SDS011;74571;52.514;13.468;2024-01-30T13:28:22;11.73;;;6.00;;
84379;SDS011;74571;52.514;13.468;2024-01-30T13:30:48;8.02;;;5.35;;
84379;SDS011;74571;52.514;13.468;2024-01-30T13:33:13;10.70;;;4.97;;
84379;SDS011;74571;52.514;13.468;2024-01-30T13:35:38;9.47;;;4.47;;
84379;SDS011;74571;52.514;13.468;2024-01-30T13:38:03;7.50;;;4.37;;
84379;SDS011;74571;52.514;13.468;2024-01-30T13:40:29;10.00;;;4.90;;
84379;SDS011;74571;52.514;13.468;2024-01-30T13:42:54;9.73;;;5.20;;
84379;SDS011;74571;52.514;13.468;2024-01-30T13:45:19;12.53;;;6.57;;
84379;SDS011;74571;52.514;13.468;2024-01-30T13:47:44;11.53;;;5.37;;
84379;SDS011;74571;52.514;13.468;2024-01-30T13:50:10;7.60;;;4.40;;
84379;SDS011;74571;52.514;13.468;2024-01-30T13:52:39;8.77;;;4.70;;
84379;SDS011;74571;52.514;13.468;2024-01-30T13:55:05;11.67;;;4.63;;
84379;SDS011;74571;52.514;13.468;2024-01-30T13:57:30;8.77;;;4.90;;
84379;SDS011;74571;52.514;13.468;2024-01-30T13:59:59;8.50;;;4.60;;
84379;SDS011;74571;52.514;13.468;2024-01-30T14:02:25;8.27;;;4.50;;
84379;SDS011;74571;52.514;13.468;2024-01-30T14:04:50;6.63;;;4.23;;
84379;SDS011;74571;52.514;13.468;2024-01-30T14:07:15;7.67;;;4.83;;
84379;SDS011;74571;52.514;13.468;2024-01-30T14:09:43;8.93;;;5.15;;
84379;SDS011;74571;52.514;13.468;2024-01-30T14:12:08;10.00;;;5.20;;
84379;SDS011;74571;52.514;13.468;2024-01-30T14:14:33;16.13;;;6.77;;
84379;SDS011;74571;52.514;13.468;2024-01-30T14:16:58;11.03;;;6.00;;
84379;SDS011;74571;52.514;13.468;2024-01-30T14:19:24;8.88;;;5.38;;
84379;SDS011;74571;52.514;13.468;2024-01-30T14:21:49;9.17;;;5.10;;
84379;SDS011;74571;52.514;13.468;2024-01-30T14:24:15;10.63;;;5.60;;